หน้าหลัก
METAR-TAF:

METAR-TAF

ท่าอากาศยาน :

Nenana, อะแลสกา, สหรัฐอเมริกา

ละติจูด: 64-33N, ลองจิจูด: 149-05W, ความสูง: 110 ม.

การสังเกตสภาพอากาศปัจจุบัน

รายงานได้ทำขึ้นเมื่อ 36 นาทีที่แล้ว ณ เวลา 23:23 UTC
ลม 5 นอตจากทิศทางซึ่งแปรผันได้
อุณหภูมิ 15°C
ความชื้น 51%
ความกดอากาศ 1001 hPa
ทัศนวิสัย: 16.1 กม.
มีเมฆเป็นส่วนมากเว้นเป็นระยะที่ความสูง 3100 ฟุต
มีเมฆเป็นส่วนมากเว้นเป็นระยะที่ความสูง 11000 ฟุต

METAR: PANN 242323Z AUTO VRB05KT 10SM BKN031 BKN110 15/05 A2956 RMK AO2 T01500050 TSNO

เวลา: 15:59 (23:59 UTC)


TAF: หายไป

สังเกตการณ์สภาพอากาศและพยากรณ์อากาศของสนามบินมากกว่า 4000 แห่ง (รายงาน METAR และ TAF).

สถานีที่ดูได้จะแสดงไว้ด้วยจุดสีเหลืองและสีแดงบนแผนที่.

เลื่อนเมาส์ไปเหนือจุดเพื่อดูชื่อสถานี.

แล้วคลิกเพื่อดูสังเกตการณ์และการพยากรณ์สภาพอากาศ.

ในการเปลี่ยนแผนที่: คลิกที่ปุ่มสีเขียวที่มีกากบาทสีดำเพื่อซูมเข้า; ที่ปุ่มสีเขียวที่มีขีดเพื่อซูมออก; หรือที่ลูกศรสีเขียวเพื่อไปยังแผนที่ที่อยู่ติดกัน.


METAR-TAF: